NCAR-RAP Real-Time Weather Data

Output produced by METARs form (23 June 2018  16:10 UTC)
found at http://weather.rap.ucar.edu/surface/
 
Conditions at: KMCO observed 23 June 2018  14:53 UTC
Temperature: 31.1°C (88°F)
Dewpoint: 23.3°C (74°F) [RH = 63%]
Pressure (altimeter): 30.03 inches Hg (1017.0 mb)
[Sea-level pressure: 1016.6 mb]
Winds: from the WNW (300 degrees) at 12 MPH (10 knots; 5.2 m/s)
gusting to 16 MPH (14 knots; 7.3 m/s)
Visibility: 10 or more miles (16+ km)
Ceiling: at least 12,000 feet AGL
Clouds: few clouds at 3000 feet AGL
few clouds at 25000 feet AGL
Present Weather: no significant weather observed at this time
KMCO 231453Z 30010G14KT 10SM FEW030 FEW250 31/23 A3003 RMK AO2 SLP166 T03110233 52004

Conditions at: KMCO observed 23 June 2018  13:53 UTC
Temperature: 30.0°C (86°F)
Dewpoint: 23.9°C (75°F) [RH = 70%]
Pressure (altimeter): 30.02 inches Hg (1016.7 mb)
[Sea-level pressure: 1016.4 mb]
Winds: from the W (280 degrees) at 10 MPH (9 knots; 4.7 m/s)
Visibility: 10 or more miles (16+ km)
Ceiling: at least 12,000 feet AGL
Clouds: few clouds at 3000 feet AGL
few clouds at 12000 feet AGL
few clouds at 25000 feet AGL
Present Weather: no significant weather observed at this time
KMCO 231353Z 28009KT 10SM FEW030 FEW120 FEW250 30/24 A3002 RMK AO2 SLP164 CB DSNT W T03000239

Conditions at: KMCO observed 23 June 2018  12:53 UTC
Temperature: 28.3°C (83°F)
Dewpoint: 25.0°C (77°F) [RH = 82%]
Pressure (altimeter): 30.02 inches Hg (1016.7 mb)
[Sea-level pressure: 1016.3 mb]
Winds: from the WSW (250 degrees) at 9 MPH (8 knots; 4.2 m/s)
Visibility: 10 or more miles (16+ km)
Ceiling: at least 12,000 feet AGL
Clouds: few clouds at 3000 feet AGL
few clouds at 12000 feet AGL
scattered clouds at 25000 feet AGL
Present Weather: no significant weather observed at this time
KMCO 231253Z 25008KT 10SM FEW030 FEW120 SCT250 28/25 A3002 RMK AO2 SLP163 T02830250

Conditions at: KMCO observed 23 June 2018  11:53 UTC
Temperature: 26.1°C (79°F)
Dewpoint: 25.6°C (78°F) [RH = 97%]
Pressure (altimeter): 30.01 inches Hg (1016.3 mb)
[Sea-level pressure: 1016.1 mb]
Winds: from the WSW (240 degrees) at 5 MPH (4 knots; 2.1 m/s)
Visibility: 10 or more miles (16+ km)
Ceiling: at least 12,000 feet AGL
Clouds: few clouds at 12000 feet AGL
scattered clouds at 25000 feet AGL
Present Weather: no significant weather observed at this time
KMCO 231153Z 24004KT 10SM FEW120 SCT250 26/26 A3001 RMK AO2 SLP161 70049 T02610256 10261 20239 53014

Conditions at: KMCO observed 23 June 2018  10:53 UTC
Temperature: 24.4°C (76°F)
Dewpoint: 24.4°C (76°F) [RH = 100%]
Pressure (altimeter): 29.99 inches Hg (1015.7 mb)
[Sea-level pressure: 1015.3 mb]
Winds: from the SSW (210 degrees) at 3 MPH (3 knots; 1.6 m/s)
Visibility: 8 miles (13 km)
Ceiling: at least 12,000 feet AGL
Clouds: few clouds at 3000 feet AGL
few clouds at 12000 feet AGL
scattered clouds at 25000 feet AGL
Present Weather: no significant weather observed at this time
KMCO 231053Z 21003KT 8SM FEW030 FEW120 SCT250 24/24 A2999 RMK AO2 SLP153 T02440244

Conditions at: KMCO observed 23 June 2018  09:53 UTC
Temperature: 24.4°C (76°F)
Dewpoint: 24.4°C (76°F) [RH = 100%]
Pressure (altimeter): 29.98 inches Hg (1015.3 mb)
[Sea-level pressure: 1014.9 mb]
Winds: from the WSW (250 degrees) at 6 MPH (5 knots; 2.6 m/s)
Visibility: 10 or more miles (16+ km)
Ceiling: at least 12,000 feet AGL
Clouds: few clouds at 12000 feet AGL
few clouds at 25000 feet AGL
Present Weather: no significant weather observed at this time
KMCO 230953Z 25005KT 10SM FEW120 FEW250 24/24 A2998 RMK AO2 SLP149 T02440244

Conditions at: KMCO observed 23 June 2018  08:53 UTC
Temperature: 25.0°C (77°F)
Dewpoint: 25.0°C (77°F) [RH = 100%]
Pressure (altimeter): 29.97 inches Hg (1015.0 mb)
[Sea-level pressure: 1014.8 mb]
Winds: from the SW (230 degrees) at 6 MPH (5 knots; 2.6 m/s)
Visibility: 10 or more miles (16+ km)
Ceiling: at least 12,000 feet AGL
Clouds: scattered clouds at 25000 feet AGL
Present Weather: no significant weather observed at this time
KMCO 230853Z 23005KT 10SM SCT250 25/25 A2997 RMK AO2 SLP148 T02500250 56007

Conditions at: KMCO observed 23 June 2018  07:53 UTC
Temperature: 23.9°C (75°F)
Dewpoint: 23.9°C (75°F) [RH = 100%]
Pressure (altimeter): 29.97 inches Hg (1015.0 mb)
[Sea-level pressure: 1014.8 mb]
Winds: from the SSW (210 degrees) at 3 MPH (3 knots; 1.6 m/s)
Visibility: 8 miles (13 km)
Ceiling: 25000 feet AGL
Clouds: broken clouds at 25000 feet AGL
Present Weather: no significant weather observed at this time
KMCO 230753Z 21003KT 8SM BKN250 24/24 A2997 RMK AO2 SLP148 T02390239

Conditions at: KMCO observed 23 June 2018  06:53 UTC
Temperature: 24.4°C (76°F)
Dewpoint: 24.4°C (76°F) [RH = 100%]
Pressure (altimeter): 29.98 inches Hg (1015.3 mb)
[Sea-level pressure: 1015.0 mb]
Winds: from the SSW (200 degrees) at 5 MPH (4 knots; 2.1 m/s)
Visibility: 9 miles (14 km)
Ceiling: 25000 feet AGL
Clouds: broken clouds at 25000 feet AGL
Present Weather: no significant weather observed at this time
KMCO 230653Z 20004KT 9SM BKN250 24/24 A2998 RMK AO2 SLP150 T02440244

Conditions at: KMCO observed 23 June 2018  05:53 UTC
Temperature: 24.4°C (76°F)
Dewpoint: 24.4°C (76°F) [RH = 100%]
Pressure (altimeter): 29.99 inches Hg (1015.7 mb)
[Sea-level pressure: 1015.5 mb]
Winds: from the SE (140 degrees) at 3 MPH (3 knots; 1.6 m/s)
Visibility: 10 or more miles (16+ km)
Ceiling: 25000 feet AGL
Clouds: overcast cloud deck at 25000 feet AGL
Present Weather: no significant weather observed at this time
KMCO 230553Z 14003KT 10SM OVC250 24/24 A2999 RMK AO2 SLP155 60000 T02440244 10256 20244 50002

Conditions at: KMCO observed 23 June 2018  04:53 UTC
Temperature: 25.0°C (77°F)
Dewpoint: 24.4°C (76°F) [RH = 96%]
Pressure (altimeter): 30.00 inches Hg (1016.0 mb)
[Sea-level pressure: 1015.7 mb]
Winds: calm
Visibility: 10 or more miles (16+ km)
Ceiling: 25000 feet AGL
Clouds: few clouds at 16000 feet AGL
overcast cloud deck at 25000 feet AGL
Present Weather: no significant weather observed at this time
KMCO 230453Z 00000KT 10SM FEW160 OVC250 25/24 A3000 RMK AO2 SLP157 T02500244 403390233

Conditions at: KMCO observed 23 June 2018  03:53 UTC
Temperature: 25.0°C (77°F)
Dewpoint: 24.4°C (76°F) [RH = 96%]
Pressure (altimeter): 30.00 inches Hg (1016.0 mb)
[Sea-level pressure: 1015.8 mb]
Winds: from the ESE (120 degrees) at 3 MPH (3 knots; 1.6 m/s)
Visibility: 10 or more miles (16+ km)
Ceiling: 25000 feet AGL
Clouds: few clouds at 16000 feet AGL
overcast cloud deck at 25000 feet AGL
Present Weather: no significant weather observed at this time
KMCO 230353Z 12003KT 10SM FEW160 OVC250 25/24 A3000 RMK AO2 SLP158 T02500244

Conditions at: KMCO observed 23 June 2018  02:53 UTC
Temperature: 25.0°C (77°F)
Dewpoint: 23.9°C (75°F) [RH = 94%]
Pressure (altimeter): 29.99 inches Hg (1015.7 mb)
[Sea-level pressure: 1015.3 mb]
Winds: from the SE (140 degrees) at 5 MPH (4 knots; 2.1 m/s)
Visibility: 10 or more miles (16+ km)
Ceiling: 25000 feet AGL
Clouds: few clouds at 16000 feet AGL
overcast cloud deck at 25000 feet AGL
Present Weather: no significant weather observed at this time
KMCO 230253Z 14004KT 10SM FEW160 OVC250 25/24 A2999 RMK AO2 SLP153 60000 T02500239 53008

Conditions at: KMCO observed 23 June 2018  01:53 UTC
Temperature: 25.6°C (78°F)
Dewpoint: 23.3°C (74°F) [RH = 87%]
Pressure (altimeter): 29.97 inches Hg (1015.0 mb)
[Sea-level pressure: 1014.6 mb]
Winds: from the SW (220 degrees) at 5 MPH (4 knots; 2.1 m/s)
Visibility: 10 or more miles (16+ km)
Ceiling: 25000 feet AGL
Clouds: scattered clouds at 16000 feet AGL
overcast cloud deck at 25000 feet AGL
Present Weather: no significant weather observed at this time
KMCO 230153Z 22004KT 10SM SCT160 OVC250 26/23 A2997 RMK AO2 SLP146 T02560233

Conditions at: KMCO observed 23 June 2018  00:53 UTC
Temperature: 25.0°C (77°F)
Dewpoint: 23.3°C (74°F) [RH = 90%]
Pressure (altimeter): 29.95 inches Hg (1014.3 mb)
[Sea-level pressure: 1014.2 mb]
Winds: variable direction winds at 3 MPH (3 knots; 1.6 m/s)
Visibility: 10 or more miles (16+ km)
Ceiling: 16000 feet AGL
Clouds: few clouds at 2900 feet AGL
broken clouds at 16000 feet AGL
broken clouds at 25000 feet AGL
Present Weather: no significant weather observed at this time
KMCO 230053Z VRB03KT 10SM FEW029 BKN160 BKN250 25/23 A2995 RMK AO2 RAE32 TSE25 SLP142 P0000 T02500233

Conditions at: KMCO observed 23 June 2018  00:26 UTC
Temperature: 25.0°C (77°F)
Dewpoint: 23.3°C (74°F) [RH = 90%]
Pressure (altimeter): 29.97 inches Hg (1015.0 mb)
Winds: variable direction winds at 3 MPH (3 knots; 1.6 m/s)
Visibility: 10 or more miles (16+ km)
Ceiling: 9500 feet AGL
Clouds: few clouds at 1100 feet AGL
scattered clouds at 5000 feet AGL
broken clouds at 9500 feet AGL
broken clouds at 25000 feet AGL
Present Weather: -RA  (light rain)
KMCO 230026Z VRB03KT 10SM -RA FEW011 SCT050 BKN095 BKN250 25/23 A2997 RMK AO2 LTG DSNT SE AND S TSE25 TS MOV E CB DSNT NE-SE MOV E P0000 T02500233

Conditions at: KMCO observed 22 June 2018  23:53 UTC
Temperature: 25.0°C (77°F)
Dewpoint: 23.3°C (74°F) [RH = 90%]
Pressure (altimeter): 29.96 inches Hg (1014.6 mb)
[Sea-level pressure: 1014.5 mb]
Winds: from the ESE (110 degrees) at 10 MPH (9 knots; 4.7 m/s)
Visibility: 10 or more miles (16+ km)
Ceiling: 10000 feet AGL
Clouds: scattered clouds at 4700 feet AGL
broken clouds at 10000 feet AGL
broken clouds at 25000 feet AGL
Present Weather: -TSRA  (light rain associated with thunderstorm(s))
KMCO 222353Z 11009KT 10SM -TSRA SCT047CB BKN100 BKN250 25/23 A2996 RMK AO2 LTG DSNT N AND NE TSE08B41 SLP145 OCNL LTGICCG NE TS NE MOV E P0001 60049 T02500233 10339 20233 51017

Conditions at: KMCO observed 22 June 2018  23:42 UTC
Temperature: 25.6°C (78°F)
Dewpoint: 23.3°C (74°F) [RH = 87%]
Pressure (altimeter): 29.97 inches Hg (1015.0 mb)
Winds: from the E (100 degrees) at 9 MPH (8 knots; 4.2 m/s)
Visibility: 10 or more miles (16+ km)
Ceiling: 10000 feet AGL
Clouds: few clouds at 4300 feet AGL
broken clouds at 10000 feet AGL
broken clouds at 25000 feet AGL
Present Weather: -TSRA  (light rain associated with thunderstorm(s))
KMCO 222342Z 10008KT 10SM -TSRA FEW043CB BKN100 BKN250 26/23 A2997 RMK AO2 LTG DSNT N TSE08B41 OCNL LTGICCG N TS N MOV E P0001 T02560233

Conditions at: KMCO observed 22 June 2018  23:09 UTC
Temperature: 25.0°C (77°F)
Dewpoint: 23.3°C (74°F) [RH = 90%]
Pressure (altimeter): 29.95 inches Hg (1014.3 mb)
Winds: from the NNE (30 degrees) at 8 MPH (7 knots; 3.6 m/s)
Visibility: 10 or more miles (16+ km)
Ceiling: 12000 feet AGL
Clouds: few clouds at 4000 feet AGL
scattered clouds at 9000 feet AGL
broken clouds at 12000 feet AGL
broken clouds at 25000 feet AGL
Present Weather: -RA  (light rain)
KMCO 222309Z 03007KT 10SM -RA FEW040 SCT090 BKN120 BKN250 25/23 A2995 RMK AO2 LTG DSNT ALQDS TSE08 TS MOV E CB DSNT NE MOV E P0000 T02500233

Conditions at: KMCO observed 22 June 2018  22:53 UTC
Temperature: 25.0°C (77°F)
Dewpoint: 23.3°C (74°F) [RH = 90%]
Pressure (altimeter): 29.95 inches Hg (1014.3 mb)
[Sea-level pressure: 1014.0 mb]
Winds: from the NNE (30 degrees) at 10 MPH (9 knots; 4.7 m/s)
Visibility: 10 or more miles (16+ km)
Ceiling: 12000 feet AGL
Clouds: few clouds at 4000 feet AGL
scattered clouds at 9000 feet AGL
broken clouds at 12000 feet AGL
broken clouds at 25000 feet AGL
Present Weather: -TSRA  (light rain associated with thunderstorm(s))
KMCO 222253Z 03009KT 10SM -TSRA FEW040CB SCT090 BKN120 BKN250 25/23 A2995 RMK AO2 LTG DSNT N-SE TSE12B14 SLP140 OCNL LTGIC NE TS NE MOV E P0002 T02500233

Conditions at: KMCO observed 22 June 2018  21:53 UTC
Temperature: 24.4°C (76°F)
Dewpoint: 23.3°C (74°F) [RH = 94%]
Pressure (altimeter): 29.95 inches Hg (1014.3 mb)
[Sea-level pressure: 1014.0 mb]
Winds: from the ENE (60 degrees) at 9 MPH (8 knots; 4.2 m/s)
Visibility: 8 miles (13 km)
Ceiling: 3400 feet AGL
Clouds: few clouds at 1100 feet AGL
broken clouds at 3400 feet AGL
broken clouds at 10000 feet AGL
Present Weather: -TSRA  (light rain associated with thunderstorm(s))
KMCO 222153Z 06008KT 8SM -TSRA FEW011 BKN034CB BKN100 24/23 A2995 RMK AO2 PK WND 26033/2107 LTG DSNT ALQDS RAB08 SLP140 FRQ LTGICCCCG N-E TS N-E MOV E P0046 T02440233

Conditions at: KMCO observed 22 June 2018  21:37 UTC
Temperature: 23.3°C (74°F)
Dewpoint: 22.2°C (72°F) [RH = 94%]
Pressure (altimeter): 29.95 inches Hg (1014.3 mb)
Winds: calm
Visibility: 4 miles (6 km)
Ceiling: 3000 feet AGL
Clouds: few clouds at 1100 feet AGL
broken clouds at 3000 feet AGL
overcast cloud deck at 6000 feet AGL
Present Weather: +TSRA BR  (heavy rain associated with thunderstorm(s), mist)
KMCO 222137Z 00000KT 4SM +TSRA BR FEW011 BKN030CB OVC060 23/22 A2995 RMK AO2 PK WND 26033/2107 LTG DSNT ALQDS RAB08 VIS NE 2 CONS LTGICCG N-E-S TS N-E-S MOV E P0040 T02330222

Conditions at: KMCO observed 22 June 2018  21:19 UTC
Temperature: 23.9°C (75°F)
Dewpoint: 21.7°C (71°F) [RH = 88%]
Pressure (altimeter): 29.95 inches Hg (1014.3 mb)
Winds: from the SW (220 degrees) at 26 MPH (23 knots; 12.0 m/s)
gusting to 34 MPH (30 knots; 15.6 m/s)
Visibility: 2.00 miles (3.22 km)
Ceiling: 4300 feet AGL
Clouds: broken clouds at 4300 feet AGL
broken clouds at 6000 feet AGL
Present Weather: +TSRA BR  (heavy rain associated with thunderstorm(s), mist)
KMCO 222119Z 22023G30KT 2SM +TSRA BR BKN043CB BKN060 24/22 A2995 RMK AO2 PK WND 26033/2107 LTG DSNT ALQDS RAB08 CONS LTGICCG OHD AND ALQDS TS OHD AND ALQDS MOV E P0003 T02390217

Conditions at: KMCO observed 22 June 2018  20:53 UTC
Temperature: 32.2°C (90°F)
Dewpoint: 22.2°C (72°F) [RH = 56%]
Pressure (altimeter): 29.91 inches Hg (1013.0 mb)
[Sea-level pressure: 1012.7 mb]
Winds: from the WSW (250 degrees) at 8 MPH (7 knots; 3.6 m/s)
Visibility: 10 or more miles (16+ km)
Ceiling: 7500 feet AGL
Clouds: scattered clouds at 4700 feet AGL
broken clouds at 7500 feet AGL
broken clouds at 25000 feet AGL
Present Weather: TS  (thunderstorm)
KMCO 222053Z 25007KT 10SM TS SCT047CB BKN075 BKN250 32/22 A2991 RMK AO2 LTG DSNT ALQDS TSE35B42 SLP127 FRQ LTGICCG SW-W TS SW-W MOV E T03220222 56016

Conditions at: KMCO observed 22 June 2018  20:43 UTC
Temperature: 32.8°C (91°F)
Dewpoint: 22.8°C (73°F) [RH = 56%]
Pressure (altimeter): 29.91 inches Hg (1013.0 mb)
Winds: from the SW (220 degrees) at 8 MPH (7 knots; 3.6 m/s)
Visibility: 10 or more miles (16+ km)
Ceiling: 8000 feet AGL
Clouds: scattered clouds at 4800 feet AGL
broken clouds at 8000 feet AGL
broken clouds at 25000 feet AGL
Present Weather: TS  (thunderstorm)
KMCO 222043Z 22007KT 10SM TS SCT048CB BKN080 BKN250 33/23 A2991 RMK AO2 LTG DSNT SE AND W TSE35B42 OCNL LTGICCG W TS W MOV E T03280228

Conditions at: KMCO observed 22 June 2018  20:41 UTC
Temperature: 32.8°C (91°F)
Dewpoint: 22.8°C (73°F) [RH = 56%]
Pressure (altimeter): 29.91 inches Hg (1013.0 mb)
Winds: from the SSW (210 degrees) at 7 MPH (6 knots; 3.1 m/s)
Visibility: 10 or more miles (16+ km)
Ceiling: at least 12,000 feet AGL
Clouds: few clouds at 5000 feet AGL
Present Weather: VCTS  (thunderstorm in vicinity)
KMCO 222041Z 21006KT 10SM VCTS FEW050 33/23 A2991 RMK AO2 LTG DSNT N AND SE AND W TSE35 T03280228

Conditions at: KMCO observed 22 June 2018  19:53 UTC
Temperature: 33.3°C (92°F)
Dewpoint: 22.8°C (73°F) [RH = 54%]
Pressure (altimeter): 29.92 inches Hg (1013.3 mb)
[Sea-level pressure: 1013.0 mb]
Winds: from the SSW (210 degrees) at 7 MPH (6 knots; 3.1 m/s)
Visibility: 10 or more miles (16+ km)
Ceiling: 25000 feet AGL
Clouds: few clouds at 4500 feet AGL
scattered clouds at 6000 feet AGL
broken clouds at 25000 feet AGL
Present Weather: no significant weather observed at this time
KMCO 221953Z 21006KT 10SM FEW045 SCT060 BKN250 33/23 A2992 RMK AO2 LTG DSNT W SLP130 CB DSNT W-NW T03330228

Conditions at: KMCO observed 22 June 2018  18:53 UTC
Temperature: 32.8°C (91°F)
Dewpoint: 22.8°C (73°F) [RH = 56%]
Pressure (altimeter): 29.94 inches Hg (1014.0 mb)
[Sea-level pressure: 1013.8 mb]
Winds: from the SSW (210 degrees) at 10 MPH (9 knots; 4.7 m/s)
Visibility: 10 or more miles (16+ km)
Ceiling: 25000 feet AGL
Clouds: scattered clouds at 4600 feet AGL
broken clouds at 25000 feet AGL
Present Weather: no significant weather observed at this time
KMCO 221853Z 21009KT 10SM SCT046 BKN250 33/23 A2994 RMK AO2 SLP138 CB DSNT S MOV E T03280228

Conditions at: KMCO observed 22 June 2018  17:53 UTC
Temperature: 32.2°C (90°F)
Dewpoint: 21.1°C (70°F) [RH = 52%]
Pressure (altimeter): 29.96 inches Hg (1014.6 mb)
[Sea-level pressure: 1014.3 mb]
Winds: variable direction winds at 3 MPH (3 knots; 1.6 m/s)
Visibility: 10 or more miles (16+ km)
Ceiling: at least 12,000 feet AGL
Clouds: few clouds at 4000 feet AGL
few clouds at 25000 feet AGL
Present Weather: no significant weather observed at this time
KMCO 221753Z VRB03KT 10SM FEW040 FEW250 32/21 A2996 RMK AO2 LTG DSNT SW SLP143 CB DSNT SW T03220211 10333 20261 58013

Conditions at: KMCO observed 22 June 2018  16:53 UTC
Temperature: 31.7°C (89°F)
Dewpoint: 22.2°C (72°F) [RH = 57%]
Pressure (altimeter): 29.98 inches Hg (1015.3 mb)
[Sea-level pressure: 1015.2 mb]
Winds: variable direction winds at 3 MPH (3 knots; 1.6 m/s)
Visibility: 10 or more miles (16+ km)
Ceiling: at least 12,000 feet AGL
Clouds: few clouds at 3800 feet AGL
few clouds at 25000 feet AGL
Present Weather: no significant weather observed at this time
KMCO 221653Z VRB03KT 10SM FEW038 FEW250 32/22 A2998 RMK AO2 SLP152 T03170222

Conditions at: KMCO observed 22 June 2018  15:53 UTC
Temperature: 30.6°C (87°F)
Dewpoint: 22.8°C (73°F) [RH = 63%]
Pressure (altimeter): 29.99 inches Hg (1015.7 mb)
[Sea-level pressure: 1015.4 mb]
Winds: from the WSW (240 degrees) at 7 MPH (6 knots; 3.1 m/s)
Visibility: 10 or more miles (16+ km)
Ceiling: at least 12,000 feet AGL
Clouds: few clouds at 2900 feet AGL
scattered clouds at 25000 feet AGL
Present Weather: no significant weather observed at this time
KMCO 221553Z 24006KT 10SM FEW029 SCT250 31/23 A2999 RMK AO2 SLP154 CB DSNT SW T03060228

Conditions at: KMCO observed 22 June 2018  14:53 UTC
Temperature: 29.4°C (85°F)
Dewpoint: 24.4°C (76°F) [RH = 75%]
Pressure (altimeter): 30.00 inches Hg (1016.0 mb)
[Sea-level pressure: 1015.6 mb]
Winds: from the WNW (290 degrees) at 8 MPH (7 knots; 3.6 m/s)
Visibility: 10 or more miles (16+ km)
Ceiling: 22000 feet AGL
Clouds: scattered clouds at 2200 feet AGL
broken clouds at 22000 feet AGL
Present Weather: no significant weather observed at this time
KMCO 221453Z 29007KT 10SM SCT022 BKN220 29/24 A3000 RMK AO2 SLP156 T02940244 51005

Conditions at: KMCO observed 22 June 2018  13:53 UTC
Temperature: 28.9°C (84°F)
Dewpoint: 24.4°C (76°F) [RH = 77%]
Pressure (altimeter): 29.99 inches Hg (1015.7 mb)
[Sea-level pressure: 1015.5 mb]
Winds: from the WNW (290 degrees) at 10 MPH (9 knots; 4.7 m/s)
Visibility: 10 or more miles (16+ km)
Ceiling: 21000 feet AGL
Clouds: scattered clouds at 2200 feet AGL
broken clouds at 21000 feet AGL
Present Weather: no significant weather observed at this time
KMCO 221353Z 29009KT 10SM SCT022 BKN210 29/24 A2999 RMK AO2 SLP155 CB DSNT W T02890244

Conditions at: KMCO observed 22 June 2018  12:53 UTC
Temperature: 27.2°C (81°F)
Dewpoint: 25.0°C (77°F) [RH = 88%]
Pressure (altimeter): 30.00 inches Hg (1016.0 mb)
[Sea-level pressure: 1015.6 mb]
Winds: from the W (260 degrees) at 9 MPH (8 knots; 4.2 m/s)
Visibility: 10 or more miles (16+ km)
Ceiling: 21000 feet AGL
Clouds: broken clouds at 21000 feet AGL
Present Weather: no significant weather observed at this time
KMCO 221253Z 26008KT 10SM BKN210 27/25 A3000 RMK AO2 SLP156 T02720250

Conditions at: KMCO observed 22 June 2018  11:53 UTC
Temperature: 26.1°C (79°F)
Dewpoint: 25.0°C (77°F) [RH = 94%]
Pressure (altimeter): 29.98 inches Hg (1015.3 mb)
[Sea-level pressure: 1015.1 mb]
Winds: from the W (260 degrees) at 5 MPH (4 knots; 2.1 m/s)
Visibility: 10 or more miles (16+ km)
Ceiling: 19000 feet AGL
Clouds: broken clouds at 19000 feet AGL
broken clouds at 25000 feet AGL
Present Weather: no significant weather observed at this time
KMCO 221153Z 26004KT 10SM BKN190 BKN250 26/25 A2998 RMK AO2 SLP151 70096 T02610250 10261 20239 53019

Conditions at: KMCO observed 22 June 2018  10:53 UTC
Temperature: 25.0°C (77°F)
Dewpoint: 24.4°C (76°F) [RH = 96%]
Pressure (altimeter): 29.96 inches Hg (1014.6 mb)
[Sea-level pressure: 1014.3 mb]
Winds: from the W (270 degrees) at 3 MPH (3 knots; 1.6 m/s)
Visibility: 10 or more miles (16+ km)
Ceiling: 18000 feet AGL
Clouds: broken clouds at 18000 feet AGL
broken clouds at 25000 feet AGL
Present Weather: no significant weather observed at this time
KMCO 221053Z 27003KT 10SM BKN180 BKN250 25/24 A2996 RMK AO2 SLP143 T02500244

Conditions at: KMCO observed 22 June 2018  09:53 UTC
Temperature: 24.4°C (76°F)
Dewpoint: 24.4°C (76°F) [RH = 100%]
Pressure (altimeter): 29.94 inches Hg (1014.0 mb)
[Sea-level pressure: 1013.6 mb]
Winds: from the SSW (210 degrees) at 3 MPH (3 knots; 1.6 m/s)
Visibility: 10 or more miles (16+ km)
Ceiling: at least 12,000 feet AGL
Clouds: scattered clouds at 18000 feet AGL
scattered clouds at 25000 feet AGL
Present Weather: no significant weather observed at this time
KMCO 220953Z 21003KT 10SM SCT180 SCT250 24/24 A2994 RMK AO2 SLP136 T02440244

Conditions at: KMCO observed 22 June 2018  08:53 UTC
Temperature: 24.4°C (76°F)
Dewpoint: 24.4°C (76°F) [RH = 100%]
Pressure (altimeter): 29.92 inches Hg (1013.3 mb)
[Sea-level pressure: 1013.1 mb]
Winds: from the SSW (210 degrees) at 5 MPH (4 knots; 2.1 m/s)
Visibility: 10 or more miles (16+ km)
Ceiling: at least 12,000 feet AGL
Clouds: few clouds at 9000 feet AGL
scattered clouds at 25000 feet AGL
Present Weather: no significant weather observed at this time
KMCO 220853Z 21004KT 10SM FEW090 SCT250 24/24 A2992 RMK AO2 SLP131 T02440244 55006

Conditions at: KMCO observed 22 June 2018  07:53 UTC
Temperature: 25.0°C (77°F)
Dewpoint: 24.4°C (76°F) [RH = 96%]
Pressure (altimeter): 29.92 inches Hg (1013.3 mb)
[Sea-level pressure: 1012.9 mb]
Winds: from the WSW (240 degrees) at 3 MPH (3 knots; 1.6 m/s)
Visibility: 10 or more miles (16+ km)
Ceiling: at least 12,000 feet AGL
Clouds: scattered clouds at 17000 feet AGL
scattered clouds at 25000 feet AGL
Present Weather: no significant weather observed at this time
KMCO 220753Z 24003KT 10SM SCT170 SCT250 25/24 A2992 RMK AO2 SLP129 T02500244

Conditions at: KMCO observed 22 June 2018  06:53 UTC
Temperature: 24.4°C (76°F)
Dewpoint: 23.9°C (75°F) [RH = 97%]
Pressure (altimeter): 29.92 inches Hg (1013.3 mb)
[Sea-level pressure: 1013.1 mb]
Winds: from the S (180 degrees) at 5 MPH (4 knots; 2.1 m/s)
Visibility: 10 or more miles (16+ km)
Ceiling: at least 12,000 feet AGL
Clouds: scattered clouds at 17000 feet AGL
scattered clouds at 25000 feet AGL
Present Weather: no significant weather observed at this time
KMCO 220653Z 18004KT 10SM SCT170 SCT250 24/24 A2992 RMK AO2 SLP131 T02440239

Conditions at: KMCO observed 22 June 2018  05:53 UTC
Temperature: 25.0°C (77°F)
Dewpoint: 23.9°C (75°F) [RH = 94%]
Pressure (altimeter): 29.94 inches Hg (1014.0 mb)
[Sea-level pressure: 1013.7 mb]
Winds: from the S (180 degrees) at 6 MPH (5 knots; 2.6 m/s)
Visibility: 10 or more miles (16+ km)
Ceiling: at least 12,000 feet AGL
Clouds: few clouds at 2500 feet AGL
few clouds at 20000 feet AGL
Present Weather: no significant weather observed at this time
KMCO 220553Z 18005KT 10SM FEW025 FEW200 25/24 A2994 RMK AO2 SLP137 T02500239 10278 20244 58004

Conditions at: KMCO observed 22 June 2018  04:53 UTC
Temperature: 25.6°C (78°F)
Dewpoint: 23.9°C (75°F) [RH = 90%]
Pressure (altimeter): 29.95 inches Hg (1014.3 mb)
[Sea-level pressure: 1014.0 mb]
Winds: from the SW (220 degrees) at 5 MPH (4 knots; 2.1 m/s)
Visibility: 10 or more miles (16+ km)
Ceiling: at least 12,000 feet AGL
Clouds: few clouds at 3000 feet AGL
few clouds at 20000 feet AGL
scattered clouds at 25000 feet AGL
Present Weather: no significant weather observed at this time
KMCO 220453Z 22004KT 10SM FEW030 FEW200 SCT250 26/24 A2995 RMK AO2 SLP140 T02560239 403110244

Conditions at: KMCO observed 22 June 2018  03:53 UTC
Temperature: 26.1°C (79°F)
Dewpoint: 24.4°C (76°F) [RH = 90%]
Pressure (altimeter): 29.96 inches Hg (1014.6 mb)
[Sea-level pressure: 1014.2 mb]
Winds: from the SW (230 degrees) at 6 MPH (5 knots; 2.6 m/s)
Visibility: 10 or more miles (16+ km)
Ceiling: at least 12,000 feet AGL
Clouds: few clouds at 3500 feet AGL
scattered clouds at 20000 feet AGL
scattered clouds at 25000 feet AGL
Present Weather: no significant weather observed at this time
KMCO 220353Z 23005KT 10SM FEW035 SCT200 SCT250 26/24 A2996 RMK AO2 SLP142 T02610244

Conditions at: KMCO observed 22 June 2018  02:53 UTC
Temperature: 26.7°C (80°F)
Dewpoint: 24.4°C (76°F) [RH = 87%]
Pressure (altimeter): 29.95 inches Hg (1014.3 mb)
[Sea-level pressure: 1014.2 mb]
Winds: from the SW (230 degrees) at 6 MPH (5 knots; 2.6 m/s)
Visibility: 10 or more miles (16+ km)
Ceiling: 20000 feet AGL
Clouds: few clouds at 3000 feet AGL
broken clouds at 20000 feet AGL
overcast cloud deck at 25000 feet AGL
Present Weather: no significant weather observed at this time
KMCO 220253Z 23005KT 10SM FEW030 BKN200 OVC250 27/24 A2995 RMK AO2 SLP142 T02670244 50011

Conditions at: KMCO observed 22 June 2018  01:53 UTC
Temperature: 26.7°C (80°F)
Dewpoint: 25.0°C (77°F) [RH = 90%]
Pressure (altimeter): 29.96 inches Hg (1014.6 mb)
[Sea-level pressure: 1014.3 mb]
Winds: from the SSW (210 degrees) at 3 MPH (3 knots; 1.6 m/s)
Visibility: 10 or more miles (16+ km)
Ceiling: 19000 feet AGL
Clouds: few clouds at 2900 feet AGL
broken clouds at 19000 feet AGL
overcast cloud deck at 25000 feet AGL
Present Weather: no significant weather observed at this time
KMCO 220153Z 21003KT 10SM FEW029 BKN190 OVC250 27/25 A2996 RMK AO2 SLP143 T02670250

Conditions at: KMCO observed 22 June 2018  00:53 UTC
Temperature: 26.7°C (80°F)
Dewpoint: 25.0°C (77°F) [RH = 90%]
Pressure (altimeter): 29.94 inches Hg (1014.0 mb)
[Sea-level pressure: 1013.6 mb]
Winds: from the S (190 degrees) at 5 MPH (4 knots; 2.1 m/s)
Visibility: 10 or more miles (16+ km)
Ceiling: 18000 feet AGL
Clouds: broken clouds at 18000 feet AGL
overcast cloud deck at 25000 feet AGL
Present Weather: no significant weather observed at this time
KMCO 220053Z 19004KT 10SM BKN180 OVC250 27/25 A2994 RMK AO2 SLP136 T02670250

Conditions at: KMCO observed 21 June 2018  23:53 UTC
Temperature: 27.2°C (81°F)
Dewpoint: 24.4°C (76°F) [RH = 85%]
Pressure (altimeter): 29.92 inches Hg (1013.3 mb)
[Sea-level pressure: 1013.1 mb]
Winds: from the WSW (240 degrees) at 5 MPH (4 knots; 2.1 m/s)
Visibility: 10 or more miles (16+ km)
Ceiling: 18000 feet AGL
Clouds: few clouds at 4000 feet AGL
broken clouds at 18000 feet AGL
broken clouds at 21000 feet AGL
overcast cloud deck at 25000 feet AGL
Present Weather: no significant weather observed at this time
KMCO 212353Z 24004KT 10SM FEW040 BKN180 BKN210 OVC250 27/24 A2992 RMK AO2 SLP131 CB DSNT S 60006 T02720244 10278 20256 53003

Conditions at: KMCO observed 21 June 2018  22:53 UTC
Temperature: 27.8°C (82°F)
Dewpoint: 24.4°C (76°F) [RH = 82%]
Pressure (altimeter): 29.91 inches Hg (1013.0 mb)
[Sea-level pressure: 1012.8 mb]
Winds: from the WSW (240 degrees) at 7 MPH (6 knots; 3.1 m/s)
Visibility: 10 or more miles (16+ km)
Ceiling: 21000 feet AGL
Clouds: few clouds at 4000 feet AGL
scattered clouds at 16000 feet AGL
broken clouds at 21000 feet AGL
overcast cloud deck at 25000 feet AGL
Present Weather: no significant weather observed at this time
KMCO 212253Z 24006KT 10SM FEW040 SCT160 BKN210 OVC250 28/24 A2991 RMK AO2 SLP128 T02780244

Conditions at: KMCO observed 21 June 2018  21:53 UTC
Temperature: 27.8°C (82°F)
Dewpoint: 23.9°C (75°F) [RH = 79%]
Pressure (altimeter): 29.90 inches Hg (1012.6 mb)
[Sea-level pressure: 1012.4 mb]
Winds: from the NW (320 degrees) at 6 MPH (5 knots; 2.6 m/s)
Visibility: 10 or more miles (16+ km)
Ceiling: 21000 feet AGL
Clouds: few clouds at 4000 feet AGL
scattered clouds at 16000 feet AGL
broken clouds at 21000 feet AGL
overcast cloud deck at 25000 feet AGL
Present Weather: no significant weather observed at this time
KMCO 212153Z 32005KT 10SM FEW040 SCT160 BKN210 OVC250 28/24 A2990 RMK AO2 SLP124 T02780239

Conditions at: KMCO observed 21 June 2018  20:53 UTC
Temperature: 26.7°C (80°F)
Dewpoint: 23.9°C (75°F) [RH = 85%]
Pressure (altimeter): 29.91 inches Hg (1013.0 mb)
[Sea-level pressure: 1012.7 mb]
Winds: from the W (270 degrees) at 5 MPH (4 knots; 2.1 m/s)
Visibility: 10 or more miles (16+ km)
Ceiling: 25000 feet AGL
Clouds: few clouds at 4000 feet AGL
scattered clouds at 16000 feet AGL
broken clouds at 25000 feet AGL
Present Weather: no significant weather observed at this time
KMCO 212053Z 27004KT 10SM FEW040 SCT160 BKN250 27/24 A2991 RMK AO2 SLP127 60006 T02670239 58013

Conditions at: KMCO observed 21 June 2018  19:53 UTC
Temperature: 26.7°C (80°F)
Dewpoint: 24.4°C (76°F) [RH = 87%]
Pressure (altimeter): 29.94 inches Hg (1014.0 mb)
[Sea-level pressure: 1013.5 mb]
Winds: calm
Visibility: 10 or more miles (16+ km)
Ceiling: 25000 feet AGL
Clouds: few clouds at 3000 feet AGL
few clouds at 10000 feet AGL
scattered clouds at 17000 feet AGL
broken clouds at 25000 feet AGL
Present Weather: no significant weather observed at this time
KMCO 211953Z 00000KT 10SM FEW030 FEW100 SCT170 BKN250 27/24 A2994 RMK AO2 RAE34 SLP135 CB DSNT S-SW P0002 T02670244

Conditions at: KMCO observed 21 June 2018  18:53 UTC
Temperature: 25.6°C (78°F)
Dewpoint: 23.9°C (75°F) [RH = 90%]
Pressure (altimeter): 29.94 inches Hg (1014.0 mb)
[Sea-level pressure: 1013.8 mb]
Winds: from the WNW (300 degrees) at 8 MPH (7 knots; 3.6 m/s)
Visibility: 9 miles (14 km)
Ceiling: 10000 feet AGL
Clouds: few clouds at 3000 feet AGL
broken clouds at 10000 feet AGL
overcast cloud deck at 19000 feet AGL
Present Weather: -RA  (light rain)
KMCO 211853Z 30007KT 9SM -RA FEW030 BKN100 OVC190 26/24 A2994 RMK AO2 LTG DSNT SE SLP138 P0004 T02560239

Conditions at: KMCO observed 21 June 2018  17:53 UTC
Temperature: 25.6°C (78°F)
Dewpoint: 23.3°C (74°F) [RH = 87%]
Pressure (altimeter): 29.95 inches Hg (1014.3 mb)
[Sea-level pressure: 1014.0 mb]
Winds: from the NW (320 degrees) at 10 MPH (9 knots; 4.7 m/s)
Visibility: 10 or more miles (16+ km)
Ceiling: 11000 feet AGL
Clouds: few clouds at 1200 feet AGL
few clouds at 3000 feet AGL
broken clouds at 11000 feet AGL
overcast cloud deck at 19000 feet AGL
Present Weather: -RA  (light rain)
KMCO 211753Z 32009KT 10SM -RA FEW012 FEW030 BKN110 OVC190 26/23 A2995 RMK AO2 LTG DSNT NE-S RAB50 TSE45 SLP140 CB DSNT NE-SE-SW MOV E P0000 60090 T02560233 10311 20244 50003

Conditions at: KMCO observed 21 June 2018  17:46 UTC
Temperature: 25.6°C (78°F)
Dewpoint: 23.3°C (74°F) [RH = 87%]
Pressure (altimeter): 29.96 inches Hg (1014.6 mb)
Winds: from the NW (310 degrees) at 12 MPH (10 knots; 5.2 m/s)
Visibility: 10 or more miles (16+ km)
Ceiling: 11000 feet AGL
Clouds: few clouds at 1200 feet AGL
few clouds at 3000 feet AGL
broken clouds at 11000 feet AGL
overcast cloud deck at 19000 feet AGL
Present Weather: no significant weather observed at this time
KMCO 211746Z 31010KT 10SM FEW012 FEW030 BKN110 OVC190 26/23 A2996 RMK AO2 LTG DSNT NE-S TSE45 CB DSNT NE-SE-SW MOV E VCSH NE T02560233

Conditions at: KMCO observed 21 June 2018  16:53 UTC
Temperature: 26.7°C (80°F)
Dewpoint: 24.4°C (76°F) [RH = 87%]
Pressure (altimeter): 29.96 inches Hg (1014.6 mb)
[Sea-level pressure: 1014.3 mb]
Winds: from the WNW (290 degrees) at 12 MPH (10 knots; 5.2 m/s)
Visibility: 10 or more miles (16+ km)
Ceiling: 11000 feet AGL
Clouds: few clouds at 1200 feet AGL
scattered clouds at 2100 feet AGL
broken clouds at 11000 feet AGL
broken clouds at 25000 feet AGL
Present Weather: TS  (thunderstorm)
KMCO 211653Z 29010KT 10SM TS FEW012 SCT021CB BKN110 BKN250 27/24 A2996 RMK AO2 WSHFT 1632 LTG DSNT ALQDS RAE26 SLP143 OCNL LTGICCG NE AND NW TS NE AND NW MOV E CB DSNT S-SW MOV E P0007 T02670244